Time;durP1;ratioP1;P1;durP2;ratioP2;P2;SDS_P1;SDS_P2;PMS_P1;PMS_P2;Temp;Humidity;BMP_temperature;BMP_pressure;BME280_temperature;BME280_humidity;BME280_pressure;Samples;Min_cycle;Max_cycle;Signal;HPM_P1;HPM_P2
2022/10/30 00:02:22;;;;;;;36.40;22.60;;;;;;;11.57;90.33;98917.48;106473;1298;138609;-77
2022/10/30 00:04:48;;;;;;;32.70;22.40;;;;;;;11.54;90.63;98917.00;106675;1310;22168;-77
2022/10/30 00:07:15;;;;;;;36.10;22.50;;;;;;;11.52;90.54;98916.95;106699;1302;138929;-77
2022/10/30 00:09:41;;;;;;;38.00;23.40;;;;;;;11.49;90.62;98917.91;106888;1297;22069;-77
2022/10/30 00:12:07;;;;;;;35.70;23.40;;;;;;;11.47;90.73;98923.66;106605;1310;22213;-77
2022/10/30 00:14:52;;;;;;;33.40;22.50;;;;;;;11.45;90.99;98923.62;106484;1310;138784;-77
2022/10/30 00:17:18;;;;;;;42.70;25.70;;;;;;;11.44;91.00;98926.27;106617;1310;22141;-77
2022/10/30 00:19:44;;;;;;;39.20;22.70;;;;;;;11.41;91.02;98925.55;106715;1300;138634;-77
2022/10/30 00:22:10;;;;;;;32.90;21.20;;;;;;;11.39;91.08;98921.19;106665;1295;22439;-77
2022/10/30 00:24:37;;;;;;;33.60;21.70;;;;;;;11.36;91.23;98922.11;106685;1310;22192;-77
2022/10/30 00:27:03;;;;;;;33.50;22.10;;;;;;;11.35;91.31;98921.25;106498;1308;138950;-77
2022/10/30 00:29:29;;;;;;;32.50;20.80;;;;;;;11.34;91.22;98922.70;106634;1307;22958;-77
2022/10/30 00:31:56;;;;;;;32.00;21.20;;;;;;;11.33;91.15;98922.18;106431;1301;22414;-77
2022/10/30 00:34:22;;;;;;;32.50;22.10;;;;;;;11.33;91.41;98927.38;106117;1308;139425;-77
2022/10/30 00:36:48;;;;;;;31.00;21.80;;;;;;;11.32;91.56;98926.01;106381;1313;22250;-77
2022/10/30 00:39:18;;;;;;;35.50;22.20;;;;;;;11.32;91.84;98924.45;106327;1310;139631;-77
2022/10/30 00:41:44;;;;;;;32.00;21.20;;;;;;;11.32;91.93;98926.42;106377;1300;22143;-77
2022/10/30 00:44:44;;;;;;;35.50;22.40;;;;;;;11.32;92.09;98928.11;106409;1315;22240;-77
2022/10/30 00:47:13;;;;;;;34.40;21.70;;;;;;;11.32;91.79;98921.48;106489;1312;22161;-77
2022/10/30 00:49:46;;;;;;;;;;;;;;;11.32;91.89;98924.79;106590;1312;22405;-77
2022/10/30 00:52:17;;;;;;;32.00;20.80;;;;;;;11.31;92.09;98919.36;106677;1296;22391;-77
2022/10/30 00:54:47;;;;;;;32.90;21.20;;;;;;;11.31;92.09;98920.79;106819;1303;22085;-77
2022/10/30 00:57:15;;;;;;;36.00;21.50;;;;;;;11.32;92.42;98921.58;106544;1311;138997;-77
2022/10/30 00:59:42;;;;;;;31.90;21.20;;;;;;;11.34;92.47;98914.86;106733;1310;22183;-77
2022/10/30 01:02:08;;;;;;;32.30;21.80;;;;;;;11.35;92.42;98901.20;106736;1304;22316;-77
2022/10/30 01:04:36;;;;;;;31.60;21.10;;;;;;;11.37;92.38;98900.97;106507;1306;138963;-77
2022/10/30 01:07:10;;;;;;;30.90;21.10;;;;;;;11.38;92.32;98897.88;106747;1310;22365;-77
2022/10/30 01:09:54;;;;;;;28.80;19.60;;;;;;;11.39;92.56;98885.69;106582;1310;138560;-77
2022/10/30 01:12:27;;;;;;;33.20;20.90;;;;;;;11.40;92.55;98888.77;106602;1297;22324;-77
2022/10/30 01:14:59;;;;;;;30.00;20.90;;;;;;;11.43;92.49;98898.63;106577;1310;138841;-77
2022/10/30 01:17:46;;;;;;;31.80;21.00;;;;;;;11.44;92.27;98902.05;106617;1308;22347;-77
2022/10/30 01:20:32;;;;;;;29.30;20.60;;;;;;;11.46;92.38;98905.91;106501;1311;23114;-78
2022/10/30 01:23:51;;;;;;;;;;;;;;;;;;;;;
2022/10/30 01:26:46;;;;;;;30.00;20.10;;;;;;;11.49;92.47;98904.05;106568;1311;22299;-77
2022/10/30 01:29:37;;;;;;;31.10;21.00;;;;;;;11.49;92.53;98897.30;106554;1311;22082;-77
2022/10/30 01:32:36;;;;;;;32.30;21.50;;;;;;;11.47;92.54;98890.73;106702;1293;22113;-77
2022/10/30 01:35:21;;;;;;;30.70;20.60;;;;;;;11.47;92.49;98892.11;106500;1299;138473;-77
2022/10/30 01:38:21;;;;;;;33.10;21.20;;;;;;;11.46;92.24;98894.95;106663;1310;22753;-77
2022/10/30 01:40:51;;;;;;;35.80;21.00;;;;;;;11.46;92.13;98896.59;106133;1317;138706;-77
2022/10/30 01:43:17;;;;;;;30.70;21.00;;;;;;;11.46;92.19;98892.73;106306;1316;22148;-77
2022/10/30 01:46:04;;;;;;;28.40;19.80;;;;;;;11.45;92.19;98884.88;106189;1303;137639;-77
2022/10/30 01:48:51;;;;;;;29.00;18.90;;;;;;;11.42;92.05;98887.45;106114;1317;22429;-77
2022/10/30 01:51:48;;;;;;;29.10;19.80;;;;;;;11.42;92.19;98891.30;105955;1317;137716;-77
2022/10/30 01:54:20;;;;;;;27.90;18.90;;;;;;;11.42;92.22;98889.09;106158;1317;23162;-77
2022/10/30 01:57:01;;;;;;;31.10;19.70;;;;;;;11.41;92.13;98892.99;106080;1315;23023;-78
2022/10/30 01:59:36;;;;;;;26.00;18.80;;;;;;;11.40;92.26;98898.20;106069;1317;22113;-77
2022/10/30 02:02:05;;;;;;;30.60;19.20;;;;;;;11.39;92.30;98898.77;106432;1300;22110;-77
2022/10/30 02:04:34;;;;;;;30.50;20.00;;;;;;;11.39;92.21;98896.92;105899;1317;137670;-78
2022/10/30 02:07:02;;;;;;;26.10;19.00;;;;;;;11.38;92.12;98895.93;106510;1302;22363;-77
2022/10/30 02:09:31;;;;;;;30.20;21.70;;;;;;;11.39;92.23;98895.77;105949;1317;138738;-77
2022/10/30 02:12:01;;;;;;;25.90;18.40;;;;;;;11.38;92.19;98887.89;106292;1311;22293;-78
2022/10/30 02:14:33;;;;;;;26.20;18.00;;;;;;;11.34;91.83;98875.33;106266;1316;22239;-77
2022/10/30 02:17:05;;;;;;;28.30;20.00;;;;;;;11.30;91.48;98878.30;105940;1302;137440;-77
2022/10/30 02:19:31;;;;;;;30.80;20.70;;;;;;;11.27;92.11;98882.52;106554;1311;22284;-77
2022/10/30 02:21:59;;;;;;;30.40;20.10;;;;;;;11.24;91.92;98878.98;106563;1312;139387;-78
2022/10/30 02:24:28;;;;;;;30.80;21.40;;;;;;;11.22;92.33;98873.39;106629;1306;22012;-77
2022/10/30 02:26:54;;;;;;;34.50;22.00;;;;;;;11.20;92.14;98879.44;106753;1296;21888;-77
2022/10/30 02:29:20;;;;;;;33.40;21.50;;;;;;;11.19;92.07;98891.14;106557;1304;138334;-77
2022/10/30 02:31:47;;;;;;;31.80;20.80;;;;;;;11.17;92.19;98904.88;106654;1304;22079;-77
2022/10/30 02:34:15;;;;;;;35.10;21.10;;;;;;;11.16;92.24;98917.66;106670;1310;137482;-77
2022/10/30 02:36:45;;;;;;;33.60;20.70;;;;;;;11.13;92.31;98913.73;106623;1299;23400;-77
2022/10/30 02:39:12;;;;;;;32.00;21.70;;;;;;;11.10;92.24;98908.00;106484;1312;138752;-77
2022/10/30 02:41:38;;;;;;;31.20;22.30;;;;;;;11.08;92.29;98902.92;106683;1310;22200;-76
2022/10/30 02:44:06;;;;;;;32.10;20.80;;;;;;;11.05;92.19;98904.95;106485;1312;22099;-77
2022/10/30 02:46:33;;;;;;;35.80;22.10;;;;;;;11.02;92.82;98900.84;106492;1299;138570;-77
2022/10/30 02:48:59;;;;;;;31.90;20.70;;;;;;;11.00;92.47;98900.30;106616;1311;22421;-77
2022/10/30 02:51:27;;;;;;;34.60;23.20;;;;;;;10.97;92.71;98898.58;106502;1310;138919;-77
2022/10/30 02:53:53;;;;;;;33.60;22.50;;;;;;;10.95;92.85;98903.23;106730;1310;23028;-77
2022/10/30 02:56:21;;;;;;;37.30;24.30;;;;;;;10.93;92.98;98903.73;106624;1310;22413;-77
2022/10/30 02:58:47;;;;;;;37.80;23.80;;;;;;;10.91;92.93;98904.77;106640;1310;138735;-77
2022/10/30 03:01:17;;;;;;;37.30;24.10;;;;;;;10.88;92.99;98908.97;106757;1310;22133;-77
2022/10/30 03:03:44;;;;;;;35.30;23.80;;;;;;;10.85;93.17;98906.05;106505;1305;139269;-77
2022/10/30 03:06:14;;;;;;;30.90;25.10;;;;;;;10.84;93.40;98900.52;106598;1310;22270;-77
2022/10/30 03:08:46;;;;;;;32.50;23.30;;;;;;;10.82;93.54;98895.77;106637;1312;22101;-77
2022/10/30 03:11:15;;;;;;;36.60;24.30;;;;;;;10.80;93.33;98885.42;106721;1300;138596;-77
2022/10/30 03:13:42;;;;;;;35.90;23.30;;;;;;;10.77;93.35;98881.78;106616;1312;22103;-77
2022/10/30 03:16:15;;;;;;;32.30;22.30;;;;;;;10.75;93.51;98872.64;106530;1296;138752;-77
2022/10/30 03:18:41;;;;;;;31.80;22.00;;;;;;;10.73;93.65;98871.38;106632;1309;22286;-77
2022/10/30 03:21:12;;;;;;;33.40;22.80;;;;;;;10.71;93.49;98871.72;106492;1307;141336;-77
2022/10/30 03:23:44;;;;;;;33.00;22.30;;;;;;;10.69;93.43;98875.98;106555;1307;22890;-77
2022/10/30 03:26:14;;;;;;;33.40;22.00;;;;;;;10.67;93.54;98882.41;106569;1312;22073;-77
2022/10/30 03:28:51;;;;;;;33.60;22.60;;;;;;;10.65;93.50;98879.52;106559;1310;138935;-77
2022/10/30 03:31:20;;;;;;;33.80;22.30;;;;;;;10.64;94.34;98883.64;106586;1311;22097;-77
2022/10/30 03:33:50;;;;;;;32.10;22.30;;;;;;;10.63;94.24;98881.42;106488;1302;138672;-77
2022/10/30 03:36:17;;;;;;;30.40;22.60;;;;;;;10.61;94.05;98880.96;106706;1295;22361;-77
2022/10/30 03:38:44;;;;;;;30.30;21.60;;;;;;;10.60;94.07;98885.89;106693;1298;22100;-77
2022/10/30 03:41:13;;;;;;;;;;;;;;;10.58;93.91;98885.23;106456;1310;138732;-77
2022/10/30 03:43:39;;;;;;;34.50;23.30;;;;;;;10.55;94.53;98881.57;106539;1312;22099;-77
2022/10/30 03:46:05;;;;;;;31.60;22.50;;;;;;;10.54;94.75;98878.28;106379;1312;138025;-77
2022/10/30 03:48:32;;;;;;;36.30;25.40;;;;;;;10.54;94.79;98881.70;106539;1299;22279;-77
2022/10/30 03:50:58;;;;;;;34.60;25.30;;;;;;;10.54;95.08;98873.53;106700;1308;22186;-77
2022/10/30 03:53:27;;;;;;;33.20;23.50;;;;;;;10.55;94.95;98875.24;106499;1310;139329;-77
2022/10/30 03:55:58;;;;;;;34.40;23.70;;;;;;;10.55;95.25;98881.90;106573;1312;22149;-77
2022/10/30 03:58:25;;;;;;;36.90;25.10;;;;;;;10.56;95.09;98884.52;106492;1306;138853;-77
2022/10/30 04:00:52;;;;;;;38.00;25.00;;;;;;;10.56;94.88;98883.34;106581;1311;22193;-77
2022/10/30 04:03:18;;;;;;;36.40;24.60;;;;;;;10.57;94.99;98881.95;106523;1312;138749;-77
2022/10/30 04:05:44;;;;;;;37.00;26.00;;;;;;;10.57;95.37;98882.20;106607;1312;22280;-77
2022/10/30 04:08:14;;;;;;;37.70;24.90;;;;;;;10.57;95.40;98881.82;106561;1298;22587;-77
2022/10/30 04:10:45;;;;;;;33.90;25.00;;;;;;;10.57;95.43;98878.67;106526;1310;138571;-77
2022/10/30 04:13:15;;;;;;;32.80;23.40;;;;;;;10.57;95.12;98880.15;106750;1310;22458;-77
2022/10/30 04:15:51;;;;;;;29.90;20.70;;;;;;;10.57;95.37;98877.27;106526;1310;139117;-76
2022/10/30 04:18:18;;;;;;;32.50;22.20;;;;;;;10.56;95.65;98872.92;106600;1291;22442;-76
2022/10/30 04:20:47;;;;;;;33.80;23.00;;;;;;;10.56;95.40;98876.02;106705;1310;22153;-77
2022/10/30 04:23:34;;;;;;;29.70;21.60;;;;;;;10.55;95.62;98872.31;106564;1310;138514;-77
2022/10/30 04:26:01;;;;;;;26.90;20.00;;;;;;;10.54;95.60;98871.31;106680;1308;22096;-77
2022/10/30 04:28:28;;;;;;;31.40;22.30;;;;;;;10.53;95.27;98874.70;106495;1298;137493;-77
2022/10/30 04:30:57;;;;;;;36.10;21.90;;;;;;;10.52;95.22;98872.66;106713;1310;22064;-77
2022/10/30 04:33:24;;;;;;;31.90;22.80;;;;;;;10.51;95.44;98877.70;106509;1309;138828;-77
2022/10/30 04:35:51;;;;;;;34.20;22.50;;;;;;;10.49;95.38;98878.90;106730;1304;22216;-77
2022/10/30 04:38:19;;;;;;;35.40;24.50;;;;;;;10.47;95.44;98878.09;106595;1299;22370;-77
2022/10/30 04:40:45;;;;;;;36.30;23.40;;;;;;;10.44;95.46;98880.05;106540;1304;138689;-77
2022/10/30 04:43:15;;;;;;;35.40;24.60;;;;;;;10.43;95.37;98874.25;106862;1303;22111;-77
2022/10/30 04:45:45;;;;;;;35.50;24.00;;;;;;;10.42;95.63;98867.48;106582;1310;139675;-77
2022/10/30 04:48:16;;;;;;;37.80;25.40;;;;;;;10.41;95.55;98868.05;106901;1289;22277;-77
2022/10/30 04:51:06;;;;;;;39.80;24.40;;;;;;;10.40;95.52;98870.33;106746;1310;23376;-77
2022/10/30 04:53:32;;;;;;;38.00;24.60;;;;;;;10.39;95.42;98876.42;106568;1310;138526;-77
2022/10/30 04:56:07;;;;;;;36.80;24.80;;;;;;;10.36;95.43;98873.86;106661;1311;22300;-77
2022/10/30 04:59:07;;;;;;;39.30;24.80;;;;;;;10.34;95.24;98874.98;106559;1307;138767;-77
2022/10/30 05:01:47;;;;;;;36.80;25.70;;;;;;;10.31;95.18;98879.91;106687;1292;22292;-77
2022/10/30 05:04:13;;;;;;;35.20;25.20;;;;;;;10.29;95.51;98883.61;106612;1295;138808;-77
2022/10/30 05:06:40;;;;;;;39.10;25.70;;;;;;;10.29;95.50;98885.71;106623;1307;22197;-77
2022/10/30 05:09:07;;;;;;;40.10;26.10;;;;;;;10.27;95.64;98883.39;106723;1310;22121;-77
2022/10/30 05:11:42;;;;;;;37.60;25.30;;;;;;;10.26;95.76;98881.14;106611;1298;22103;-77
2022/10/30 05:14:10;;;;;;;38.80;26.40;;;;;;;10.25;95.29;98879.73;106524;1312;22151;-76
2022/10/30 05:16:36;;;;;;;42.00;27.30;;;;;;;10.23;95.40;98880.27;106512;1311;138652;-77
2022/10/30 05:19:03;;;;;;;37.00;25.30;;;;;;;10.21;95.35;98880.18;106624;1304;22215;-77
2022/10/30 05:21:32;;;;;;;37.90;25.40;;;;;;;10.20;95.67;98881.58;106548;1296;139300;-77
2022/10/30 05:23:58;;;;;;;34.60;24.20;;;;;;;10.19;95.71;98886.87;106691;1295;22299;-77
2022/10/30 05:26:26;;;;;;;38.40;25.50;;;;;;;10.17;95.38;98884.09;106600;1310;22092;-76
2022/10/30 05:28:52;;;;;;;36.00;24.40;;;;;;;10.15;95.92;98883.73;106353;1310;138542;-77
2022/10/30 05:31:22;;;;;;;40.80;25.60;;;;;;;10.14;96.13;98880.98;106700;1309;22176;-77
2022/10/30 05:34:11;;;;;;;35.80;23.80;;;;;;;10.14;96.06;98879.27;106425;1311;138831;-76
2022/10/30 05:36:38;;;;;;;39.10;24.30;;;;;;;10.13;96.33;98874.35;106455;1313;22108;-76
2022/10/30 05:39:05;;;;;;;37.00;24.60;;;;;;;10.13;96.52;98870.65;106564;1310;22186;-78
2022/10/30 05:41:34;;;;;;;36.60;21.70;;;;;;;10.12;96.74;98868.20;106331;1310;138656;-76
2022/10/30 05:44:00;;;;;;;36.00;23.70;;;;;;;10.14;97.11;98872.75;106498;1298;22350;-77
2022/10/30 05:46:26;;;;;;;37.10;23.60;;;;;;;10.13;96.98;98878.66;106372;1311;139145;-76
2022/10/30 05:48:53;;;;;;;34.50;23.50;;;;;;;10.13;97.15;98883.88;106488;1310;22251;-76
2022/10/30 05:51:20;;;;;;;36.40;24.00;;;;;;;10.14;97.34;98889.52;106381;1309;138786;-77
2022/10/30 05:53:52;;;;;;;33.70;22.20;;;;;;;10.16;97.53;98893.44;106407;1298;23041;-77
2022/10/30 05:56:19;;;;;;;33.70;21.90;;;;;;;10.17;97.60;98898.90;106447;1311;22251;-78
2022/10/30 05:58:48;;;;;;;31.80;20.10;;;;;;;10.19;98.04;98905.54;106263;1312;138786;-75
2022/10/30 06:01:15;;;;;;;31.60;20.90;;;;;;;10.20;97.97;98906.19;106416;1310;22290;-76
2022/10/30 06:03:44;;;;;;;33.40;22.00;;;;;;;10.22;97.75;98905.37;106327;1291;138921;-78
2022/10/30 06:06:11;;;;;;;39.70;23.00;;;;;;;10.25;98.10;98904.23;106151;1301;22290;-76
2022/10/30 06:08:37;;;;;;;31.80;20.20;;;;;;;10.28;98.43;98907.47;106515;1310;22221;-77
2022/10/30 06:11:24;;;;;;;35.30;22.50;;;;;;;10.31;98.12;98904.75;106394;1304;138778;-76
2022/10/30 06:13:54;;;;;;;38.80;22.80;;;;;;;10.34;98.15;98901.02;106514;1298;22283;-77
2022/10/30 06:16:29;;;;;;;35.80;21.50;;;;;;;10.37;98.47;98901.27;106223;1312;138552;-76
2022/10/30 06:19:18;;;;;;;37.20;21.80;;;;;;;10.41;98.02;98899.84;106593;1310;22983;-76
2022/10/30 06:21:44;;;;;;;35.00;21.90;;;;;;;10.44;98.16;98897.36;106366;1304;139488;-77
2022/10/30 06:24:14;;;;;;;36.00;21.30;;;;;;;10.47;97.87;98896.23;106438;1299;22111;-77
2022/10/30 06:31:06;;;;;;;35.50;20.60;;;;;;;10.56;97.84;98894.00;106655;1313;22170;-77
2022/10/30 06:33:33;;;;;;;32.10;20.10;;;;;;;10.60;97.95;98893.56;106475;1298;137830;-76
2022/10/30 06:36:00;;;;;;;34.60;20.90;;;;;;;10.64;98.10;98893.48;106547;1312;22184;-76
2022/10/30 06:38:32;;;;;;;38.40;22.60;;;;;;;10.68;97.74;98895.83;106612;1312;22156;-75
2022/10/30 06:41:03;;;;;;;34.40;20.90;;;;;;;10.73;98.03;98895.52;106489;1312;138800;-76
2022/10/30 06:43:49;;;;;;;35.80;20.90;;;;;;;10.78;97.83;98896.52;106569;1304;22138;-77
2022/10/30 06:46:24;;;;;;;34.50;21.00;;;;;;;10.84;97.48;98897.89;106611;1304;138540;-77
2022/10/30 06:48:51;;;;;;;37.40;21.80;;;;;;;10.90;97.54;98900.98;106653;1310;22925;-76
2022/10/30 06:51:18;;;;;;;37.70;22.90;;;;;;;10.95;97.53;98899.59;106698;1296;22306;-76
2022/10/30 06:53:45;;;;;;;36.70;21.70;;;;;;;11.01;97.33;98905.17;106833;1303;22197;-78
2022/10/30 06:56:30;;;;;;;34.70;21.70;;;;;;;11.07;97.63;98901.05;106665;1298;22316;-77
2022/10/30 06:59:14;;;;;;;40.70;21.80;;;;;;;11.13;97.13;98907.65;106540;1310;138181;-77
2022/10/30 07:02:09;;;;;;;32.50;20.20;;;;;;;11.20;97.17;98899.59;106481;1312;22430;-77
2022/10/30 07:04:45;;;;;;;36.60;21.10;;;;;;;11.26;96.95;98900.84;106268;1310;137709;-76
2022/10/30 07:07:13;;;;;;;34.30;20.60;;;;;;;11.32;96.90;98900.38;106763;1304;22085;-77
2022/10/30 07:09:39;;;;;;;29.20;17.60;;;;;;;11.40;96.76;98904.26;106410;1313;139037;-77
2022/10/30 07:12:06;;;;;;;33.50;19.50;;;;;;;11.47;96.70;98903.70;106632;1310;22107;-76
2022/10/30 07:15:08;;;;;;;30.30;19.10;;;;;;;11.58;96.52;98896.85;106067;1316;22133;-76
2022/10/30 07:17:40;;;;;;;33.10;20.10;;;;;;;11.67;96.28;98894.66;106390;1312;138467;-75
2022/10/30 07:20:14;;;;;;;30.50;18.70;;;;;;;11.74;95.88;98883.25;106501;1312;22152;-77
2022/10/30 07:22:40;;;;;;;32.50;18.80;;;;;;;11.79;95.53;98883.13;106452;1312;138806;-76
2022/10/30 07:25:08;;;;;;;29.90;18.10;;;;;;;11.82;95.45;98883.84;106596;1302;22078;-76
2022/10/30 07:27:53;;;;;;;27.50;16.80;;;;;;;11.87;95.03;98884.42;106515;1310;139128;-76
2022/10/30 07:30:39;;;;;;;29.10;17.80;;;;;;;11.89;94.78;98888.77;106251;1310;23042;-77
2022/10/30 07:33:19;;;;;;;28.10;16.70;;;;;;;11.91;94.58;98893.30;106665;1308;22782;-76
2022/10/30 07:35:54;;;;;;;27.30;17.10;;;;;;;11.94;94.19;98901.80;106503;1303;22155;-77
2022/10/30 07:38:34;;;;;;;26.50;16.60;;;;;;;12.00;94.10;98909.70;106602;1312;22348;-77
2022/10/30 07:41:14;;;;;;;26.60;16.30;;;;;;;12.06;94.17;98911.45;106603;1298;138846;-77
2022/10/30 07:43:46;;;;;;;25.80;16.70;;;;;;;12.12;93.78;98918.90;106564;1312;22709;-77
2022/10/30 07:46:31;;;;;;;27.30;16.60;;;;;;;12.23;94.02;98921.63;106450;1296;139031;-77
2022/10/30 07:49:17;;;;;;;27.40;16.30;;;;;;;12.34;93.76;98913.19;106765;1305;22167;-76
2022/10/30 07:51:48;;;;;;;26.40;15.70;;;;;;;12.42;93.54;98910.82;106674;1311;22832;-76
2022/10/30 07:54:15;;;;;;;26.30;15.20;;;;;;;12.51;93.40;98908.74;106555;1310;138782;-75
2022/10/30 07:56:41;;;;;;;18.60;13.40;;;;;;;12.60;92.95;98907.74;106468;1302;22258;-75
2022/10/30 07:59:26;;;;;;;26.90;16.00;;;;;;;12.70;92.66;98904.26;106392;1312;138525;-75
2022/10/30 08:01:59;;;;;;;27.50;15.40;;;;;;;12.83;92.18;98897.52;106460;1307;22160;-76
2022/10/30 08:04:40;;;;;;;26.70;15.40;;;;;;;12.95;91.65;98900.61;106411;1312;138935;-76
2022/10/30 08:07:33;;;;;;;23.20;14.10;;;;;;;13.06;91.50;98903.73;106604;1313;22739;-74
2022/10/30 08:09:59;;;;;;;25.40;15.20;;;;;;;13.16;91.60;98904.96;106536;1304;22430;-76
2022/10/30 08:12:26;;;;;;;19.00;13.30;;;;;;;13.28;91.25;98905.31;106334;1314;137654;-77
2022/10/30 08:14:52;;;;;;;21.00;13.50;;;;;;;13.37;90.62;98898.79;106662;1310;22077;-77
2022/10/30 08:17:20;;;;;;;21.60;13.70;;;;;;;13.47;90.46;98898.15;106529;1302;138612;-76
2022/10/30 08:19:46;;;;;;;21.40;12.60;;;;;;;13.58;90.05;98900.48;106540;1312;22323;-76
2022/10/30 08:22:12;;;;;;;20.50;12.50;;;;;;;13.67;89.41;98898.25;106815;1298;22245;-76
2022/10/30 08:24:40;;;;;;;19.80;13.30;;;;;;;13.74;88.80;98895.93;106661;1312;22172;-77
2022/10/30 08:27:07;;;;;;;22.70;13.40;;;;;;;13.81;88.10;98883.80;106667;1298;23047;-77
2022/10/30 08:29:35;;;;;;;21.90;13.30;;;;;;;13.88;87.94;98878.08;106632;1304;138869;-76
2022/10/30 08:32:02;;;;;;;20.80;14.00;;;;;;;13.96;87.43;98881.23;106621;1307;22074;-77
2022/10/30 08:34:52;;;;;;;21.20;13.60;;;;;;;14.04;87.12;98882.86;106309;1309;137716;-77
2022/10/30 08:37:20;;;;;;;21.10;14.70;;;;;;;14.13;87.06;98882.80;106634;1298;22125;-77
2022/10/30 08:39:46;;;;;;;21.40;14.30;;;;;;;14.20;86.38;98885.33;106657;1312;22086;-77
2022/10/30 08:42:27;;;;;;;21.90;14.50;;;;;;;14.29;86.09;98885.96;106554;1303;138709;-77
2022/10/30 08:44:56;;;;;;;20.60;13.80;;;;;;;14.37;86.14;98888.61;106688;1312;22265;-77
2022/10/30 08:47:44;;;;;;;20.30;13.60;;;;;;;14.47;85.45;98885.48;106819;1296;138723;-77
2022/10/30 08:50:11;;;;;;;17.50;13.60;;;;;;;14.54;85.16;98878.80;106776;1310;22086;-78
2022/10/30 08:52:37;;;;;;;19.00;13.60;;;;;;;14.63;85.35;98872.92;106773;1300;138862;-77
2022/10/30 08:55:13;;;;;;;18.70;14.30;;;;;;;14.71;85.27;98867.57;106723;1303;22172;-77
2022/10/30 08:57:40;;;;;;;23.60;13.70;;;;;;;14.80;84.90;98866.44;106603;1300;22286;-77
2022/10/30 09:00:12;;;;;;;17.90;13.00;;;;;;;14.89;84.32;98871.42;106497;1311;138602;-77
2022/10/30 09:03:02;;;;;;;21.60;14.10;;;;;;;14.95;84.08;98870.21;106545;1312;22149;-77
2022/10/30 09:05:49;;;;;;;19.90;13.80;;;;;;;14.99;83.89;98864.05;106575;1312;139146;-77
2022/10/30 09:08:16;;;;;;;19.40;13.90;;;;;;;15.04;83.55;98864.63;106419;1314;22086;-78
2022/10/30 09:11:05;;;;;;;18.80;12.70;;;;;;;15.09;83.67;98861.09;106470;1312;138802;-77
2022/10/30 09:13:36;;;;;;;20.80;14.30;;;;;;;15.12;83.25;98863.42;106442;1313;22151;-77
2022/10/30 09:16:05;;;;;;;21.10;14.40;;;;;;;15.13;83.09;98858.20;106688;1298;22314;-77
2022/10/30 09:18:35;;;;;;;;;;;;;;;15.14;83.29;98857.13;106464;1301;137362;-77
2022/10/30 09:21:04;;;;;;;19.20;13.90;;;;;;;15.14;82.89;98855.31;106630;1313;22139;-78
2022/10/30 09:23:32;;;;;;;22.70;14.50;;;;;;;15.16;83.10;98857.08;106460;1314;139323;-78
2022/10/30 09:26:30;;;;;;;18.90;13.40;;;;;;;15.19;82.82;98860.61;106299;1307;22281;-77
2022/10/30 09:29:25;;;;;;;23.10;16.10;;;;;;;15.25;82.77;98851.98;106275;1312;138737;-78
2022/10/30 09:31:59;;;;;;;24.60;14.70;;;;;;;15.32;82.62;98854.65;106065;1319;22155;-77
2022/10/30 09:34:29;;;;;;;21.40;14.30;;;;;;;15.40;82.70;98849.85;105364;1319;345476;-77
2022/10/30 09:37:36;;;;;;;21.60;13.10;;;;;;;15.49;82.33;98844.95;106403;1304;22796;-77
2022/10/30 09:40:45;;;;;;;22.80;14.10;;;;;;;15.58;82.11;98839.95;106057;1314;139131;-77
2022/10/30 09:43:49;;;;;;;17.80;12.30;;;;;;;15.69;81.92;98839.93;105610;1320;22899;-77
2022/10/30 09:46:56;;;;;;;19.50;13.60;;;;;;;15.79;81.58;98836.10;105523;1319;138224;-77
2022/10/30 09:49:48;;;;;;;21.40;13.40;;;;;;;15.86;81.08;98837.27;105726;1308;22178;-77
2022/10/30 09:52:26;;;;;;;16.00;11.40;;;;;;;15.88;81.03;98838.11;106153;1314;138781;-78
2022/10/30 09:55:14;;;;;;;18.40;12.40;;;;;;;15.89;80.83;98839.91;105662;1321;22913;-78
2022/10/30 09:57:51;;;;;;;19.60;13.00;;;;;;;15.92;80.66;98844.49;105712;1320;22427;-77
2022/10/30 10:00:24;;;;;;;20.60;12.50;;;;;;;15.97;80.58;98848.18;106494;1288;139218;-78
2022/10/30 10:06:50;;;;;;;20.00;11.80;;;;;;;16.08;80.04;98853.36;106234;1314;22157;-78
2022/10/30 10:09:47;;;;;;;19.70;11.60;;;;;;;16.12;80.11;98851.90;106734;1302;22108;-77
2022/10/30 10:12:39;;;;;;;18.80;11.70;;;;;;;16.20;80.00;98841.73;105873;1315;139406;-78
2022/10/30 10:15:21;;;;;;;17.40;10.90;;;;;;;16.31;79.93;98842.63;106782;1304;22277;-77
2022/10/30 10:18:44;;;;;;;21.20;11.00;;;;;;;16.48;79.43;98840.83;106386;1304;138701;-77
2022/10/30 10:21:26;;;;;;;15.40;10.00;;;;;;;16.66;78.99;98838.57;106781;1309;22132;-78
2022/10/30 10:24:05;;;;;;;19.20;11.00;;;;;;;16.82;78.51;98831.96;106682;1309;138976;-78
2022/10/30 10:26:59;;;;;;;18.50;10.50;;;;;;;17.00;78.00;98830.98;106321;1315;23146;-77
2022/10/30 10:30:00;;;;;;;17.90;10.80;;;;;;;17.19;77.45;98825.86;106255;1314;138617;-77
2022/10/30 10:32:52;;;;;;;16.90;10.90;;;;;;;17.32;77.16;98824.18;106706;1313;22390;-77
2022/10/30 10:35:57;;;;;;;16.10;10.80;;;;;;;17.39;76.48;98821.30;106467;1309;137816;-78
2022/10/30 10:39:02;;;;;;;14.50;9.70;;;;;;;17.39;76.32;98819.80;106481;1317;22142;-78
2022/10/30 10:42:04;;;;;;;18.80;10.00;;;;;;;17.40;76.08;98822.71;106102;1318;138068;-77
2022/10/30 10:45:05;;;;;;;17.20;9.60;;;;;;;17.44;75.74;98828.20;106696;1309;22255;-78
2022/10/30 10:48:13;;;;;;;14.70;9.20;;;;;;;17.53;75.61;98829.17;106072;1316;138779;-78
2022/10/30 10:50:59;;;;;;;18.90;9.40;;;;;;;17.64;75.86;98830.05;106528;1306;22111;-78
2022/10/30 10:53:56;;;;;;;15.20;9.40;;;;;;;17.73;75.77;98823.07;105733;1320;137438;-78
2022/10/30 10:56:37;;;;;;;16.50;9.00;;;;;;;17.85;75.38;98827.11;105200;1323;22365;-78
2022/10/30 10:59:22;;;;;;;15.60;9.10;;;;;;;17.96;75.01;98818.67;104521;1324;138637;-78
2022/10/30 11:02:31;;;;;;;12.90;8.40;;;;;;;18.08;74.80;98822.97;104975;1315;22539;-78
2022/10/30 11:05:26;;;;;;;14.40;9.00;;;;;;;18.22;74.08;98820.39;104728;1330;138842;-74
2022/10/30 11:07:56;;;;;;;13.00;7.60;;;;;;;18.29;73.67;98817.85;104884;1323;22170;-74
2022/10/30 11:10:24;;;;;;;14.70;7.70;;;;;;;18.36;73.31;98814.11;104774;1317;138580;-78
2022/10/30 11:12:50;;;;;;;13.30;6.80;;;;;;;18.37;72.49;98807.86;104920;1328;22907;-78
2022/10/30 11:15:17;;;;;;;12.60;7.20;;;;;;;18.37;71.88;98802.95;104971;1328;22216;-78
2022/10/30 11:18:07;;;;;;;15.80;7.20;;;;;;;18.37;72.01;98808.64;104856;1326;138482;-78
2022/10/30 11:20:40;;;;;;;13.70;7.20;;;;;;;18.36;71.79;98807.82;105142;1310;22218;-78
2022/10/30 11:23:31;;;;;;;11.80;6.90;;;;;;;18.35;72.16;98807.02;105010;1329;138863;-78
2022/10/30 11:26:27;;;;;;;15.50;8.30;;;;;;;18.42;72.35;98813.29;105114;1327;22292;-78
2022/10/30 11:29:13;;;;;;;12.90;6.80;;;;;;;18.50;71.81;98814.33;105697;1320;138729;-78
2022/10/30 11:31:42;;;;;;;12.50;7.20;;;;;;;18.56;71.04;98816.21;105726;1310;22137;-78
2022/10/30 11:34:24;;;;;;;13.10;6.80;;;;;;;18.63;70.91;98823.65;105865;1292;22246;-78
2022/10/30 11:36:52;;;;;;;11.70;6.80;;;;;;;18.76;70.59;98828.28;106033;1317;22488;-78
2022/10/30 11:39:21;;;;;;;12.50;7.60;;;;;;;18.86;70.02;98826.73;106173;1317;22195;-78
2022/10/30 11:41:56;;;;;;;12.40;6.40;;;;;;;18.96;69.57;98827.41;106032;1297;139023;-78
2022/10/30 11:44:26;;;;;;;13.80;6.60;;;;;;;19.01;69.46;98827.91;106403;1301;23047;-78
2022/10/30 11:46:53;;;;;;;9.80;6.30;;;;;;;19.05;69.24;98828.15;105903;1309;138959;-79
2022/10/30 11:49:48;;;;;;;13.70;6.60;;;;;;;19.11;69.13;98823.01;106057;1314;22321;-78
2022/10/30 11:52:21;;;;;;;10.50;6.00;;;;;;;19.20;68.84;98818.83;105661;1319;22209;-79
2022/10/30 11:55:01;;;;;;;11.30;6.30;;;;;;;19.29;68.94;98820.43;105579;1319;22307;-78